Vohburg — V2OW7 — position and weather

sailwx.info

Track history (hours):
 
Tides and Currents Weather Stations Pressure Air Temp Water Temp Dewpoint Dewpoint Depression Visibility Wind Speed Wind Dir Waves Ship Positions

Vohburg

Last reported at 2014-Sep-22 22:19 UTC. Time now 2014-Sep-24 00:21 UTC.
Position N 59°47' E 024°22'.

Length 140 m; draft 6.2 m.

Type: Ship (hazmat cat A). MMSI: 305773000.

Date/timePositionNaut miles runAvg speedWind from/ knotsBaromVisibWave heightAir tempDewpointWater temp
2014-Sep-22 22:19N 59°47' E 024°22'3117.1
2014-Sep-22 20:28N 60°05' E 025°12'6 0.4
2014-Sep-22 06:27N 60°11' E 025°13'3512.0
2014-Sep-22 03:31N 59°59' E 026°20'42 1.6
2014-Sep-21 02:07N 60°09' E 027°41'1017.7
2014-Sep-21 01:33N 60°04' E 027°24'1717.0
2014-Sep-21 00:34N 59°58' E 026°52'1717.4
2014-Sep-20 23:33N 59°56' E 026°17'1817.7
2014-Sep-20 22:33N 59°52' E 025°43'1817.4
2014-Sep-20 21:33N 59°48' E 025°09'1717.5
2014-Sep-20 20:34N 59°45' E 024°35'2117.4
2014-Sep-20 19:20N 59°39' E 023°55'1418.0
2014-Sep-20 18:33N 59°34' E 023°29'20717.3
2014-Sep-20 06:34N 57°05' E 018°53'1817.3
2014-Sep-20 05:29N 56°51' E 018°33'2017.1
2014-Sep-20 04:19N 56°38' E 018°05'1617.3
2014-Sep-20 03:22N 56°27' E 017°42'1417.2
2014-Sep-20 02:34N 56°19' E 017°22'1716.9
2014-Sep-20 01:33N 56°08' E 016°58'1917.0
2014-Sep-20 00:27N 55°58' E 016°31'1817.0
2014-Sep-19 23:24N 55°49' E 016°03'1417.1
2014-Sep-19 22:34N 55°42' E 015°40'1717.2
2014-Sep-19 21:34N 55°34' E 015°13'1717.2
2014-Sep-19 20:34N 55°26' E 014°47'1717.0
2014-Sep-19 19:34N 55°14' E 014°25'1716.5
2014-Sep-19 18:34N 55°01' E 014°07'1717.0
2014-Sep-19 17:33N 54°56' E 013°39'1717.1
2014-Sep-19 16:33N 54°50' E 013°11'1716.8
2014-Sep-19 15:34N 54°45' E 012°43'1616.3
2014-Sep-19 14:33N 54°35' E 012°21'1514.9
2014-Sep-19 13:33N 54°24' E 012°03'1616.2
2014-Sep-19 12:33N 54°17' E 011°38'1716.7
2014-Sep-19 11:33N 54°08' E 011°14'1615.5
2014-Sep-19 10:33N 53°58' E 010°54'5 0.3
2014-Sep-18 17:07N 54°02' E 010°60'1017.4
2014-Sep-18 16:33N 54°09' E 011°12'1716.8
2014-Sep-18 15:34N 54°24' E 011°24'1514.5
2014-Sep-18 14:34N 54°35' E 011°09'8513.7
2014-Sep-18 08:20N 55°59' E 010°50'31 1.9
2014-Sep-17 15:33N 56°30' E 011°04'6014.8
2014-Sep-17 11:32N 57°28' E 010°43'4110.3
2014-Sep-17 07:33N 57°32' E 009°27'1716.7
2014-Sep-17 06:34N 57°22' E 009°02'1716.8
2014-Sep-17 05:33N 57°13' E 008°36'3316.5
2014-Sep-17 03:33N 56°49' E 007°54'18316.6
2014-Sep-16 16:31N 54°13' E 005°04'1616.3
2014-Sep-16 15:33N 53°59' E 004°56'1717.0
2014-Sep-16 14:33N 53°42' E 004°52'6817.1
2014-Sep-16 10:33N 52°40' E 004°02'1817.7
2014-Sep-16 09:33N 52°24' E 003°53'1817.8
2014-Sep-16 08:33N 52°06' E 003°56'1515.0
2014-Sep-16 07:33N 51°55' E 004°14'7 7.5
2014-Sep-16 06:33N 51°53' E 004°25'0 0.0
2014-Sep-16 05:26N 51°53' E 004°25'0 0.0
2014-Sep-16 04:08N 51°53' E 004°25'0 0.0
2014-Sep-16 03:17N 51°53' E 004°25'0 0.0
2014-Sep-16 02:26N 51°53' E 004°25'0 0.0
2014-Sep-16 01:14N 51°53' E 004°25'0 0.0
2014-Sep-16 00:32N 51°53' E 004°25'0 0.0
2014-Sep-15 23:32N 51°53' E 004°25'0 0.0
2014-Sep-15 22:20N 51°53' E 004°25'0 0.0
2014-Sep-15 21:17N 51°53' E 004°25'0 0.0
2014-Sep-15 20:17N 51°53' E 004°25'0 0.0
2014-Sep-15 19:32N 51°53' E 004°25'0 0.0
2014-Sep-15 18:32N 51°53' E 004°25'6 5.8
2014-Sep-15 17:33N 51°54' E 004°16'1515.2
2014-Sep-15 16:34N 52°01' E 003°54'1615.5
2014-Sep-15 15:34N 52°16' E 003°46'7617.4
2014-Sep-15 11:11N 53°26' E 004°35'1015.4
2014-Sep-15 10:32N 53°31' E 004°49'1616.1
2014-Sep-15 09:33N 53°37' E 005°14'1616.4
2014-Sep-15 08:33N 53°43' E 005°40'2417.8
2014-Sep-15 07:14N 53°49' E 006°19'4918.2
2014-Sep-15 04:34N 54°01' E 007°38'1717.4
2014-Sep-15 03:34N 54°01' E 008°08'1616.3
2014-Sep-15 02:33N 53°58' E 008°35'1313.4
2014-Sep-15 01:33N 53°51' E 008°55'9 8.9
2014-Sep-15 00:34N 53°54' E 009°09'6 6.3
2014-Sep-14 23:34N 53°58' E 009°16'9 9.0
2014-Sep-14 22:33N 54°07' E 009°20'9 8.7
2014-Sep-14 21:33N 54°12' E 009°32'52 7.4
2014-Sep-14 14:31N 54°36' E 010°52'1717.9
2014-Sep-14 13:33N 54°33' E 011°21'1818.4
2014-Sep-14 12:33N 54°26' E 011°51'1515.2
2014-Sep-14 11:33N 54°33' E 012°14'1717.3
2014-Sep-14 10:33N 54°45' E 012°35'1917.6
2014-Sep-14 09:30N 54°52' E 013°05'1717.8
2014-Sep-14 08:33N 54°58' E 013°32'3517.2
2014-Sep-14 06:33N 55°17' E 014°22'7217.8
2014-Sep-14 02:29N 55°57' E 016°09'31717.7
2014-Sep-13 08:32N 59°37' E 023°18'1717.9
2014-Sep-13 07:33N 59°42' E 023°51'2018.1
2014-Sep-13 06:27N 59°47' E 024°30'5717.9
2014-Sep-13 03:17N 59°59' E 026°20'1317.8
2014-Sep-13 02:34N 60°01' E 026°46'  
Track history (hours):
 
Tides and Currents Weather Stations Pressure Air Temp Water Temp Dewpoint Dewpoint Depression Visibility Wind Speed Wind Dir Waves Ship Positions

Vohburg

Last reported at 2014-Sep-22 22:19 UTC. Time now 2014-Sep-24 00:21 UTC.
Position N 59°47' E 024°22'.

Length 140 m; draft 6.2 m.

Type: Ship (hazmat cat A). MMSI: 305773000.

Date/timePositionNaut miles runAvg speedWind from/ knotsBaromVisibWave heightAir tempDewpointWater temp
2014-Sep-22 22:19N 59°47' E 024°22'3117.1
2014-Sep-22 20:28N 60°05' E 025°12'6 0.4
2014-Sep-22 06:27N 60°11' E 025°13'3512.0
2014-Sep-22 03:31N 59°59' E 026°20'42 1.6
2014-Sep-21 02:07N 60°09' E 027°41'1017.7
2014-Sep-21 01:33N 60°04' E 027°24'1717.0
2014-Sep-21 00:34N 59°58' E 026°52'1717.4
2014-Sep-20 23:33N 59°56' E 026°17'1817.7
2014-Sep-20 22:33N 59°52' E 025°43'1817.4
2014-Sep-20 21:33N 59°48' E 025°09'1717.5
2014-Sep-20 20:34N 59°45' E 024°35'2117.4
2014-Sep-20 19:20N 59°39' E 023°55'1418.0
2014-Sep-20 18:33N 59°34' E 023°29'20717.3
2014-Sep-20 06:34N 57°05' E 018°53'1817.3
2014-Sep-20 05:29N 56°51' E 018°33'2017.1
2014-Sep-20 04:19N 56°38' E 018°05'1617.3
2014-Sep-20 03:22N 56°27' E 017°42'1417.2
2014-Sep-20 02:34N 56°19' E 017°22'1716.9
2014-Sep-20 01:33N 56°08' E 016°58'1917.0
2014-Sep-20 00:27N 55°58' E 016°31'1817.0
2014-Sep-19 23:24N 55°49' E 016°03'1417.1
2014-Sep-19 22:34N 55°42' E 015°40'1717.2
2014-Sep-19 21:34N 55°34' E 015°13'1717.2
2014-Sep-19 20:34N 55°26' E 014°47'1717.0
2014-Sep-19 19:34N 55°14' E 014°25'1716.5
2014-Sep-19 18:34N 55°01' E 014°07'1717.0
2014-Sep-19 17:33N 54°56' E 013°39'1717.1
2014-Sep-19 16:33N 54°50' E 013°11'1716.8
2014-Sep-19 15:34N 54°45' E 012°43'1616.3
2014-Sep-19 14:33N 54°35' E 012°21'1514.9
2014-Sep-19 13:33N 54°24' E 012°03'1616.2
2014-Sep-19 12:33N 54°17' E 011°38'1716.7
2014-Sep-19 11:33N 54°08' E 011°14'1615.5
2014-Sep-19 10:33N 53°58' E 010°54'5 0.3
2014-Sep-18 17:07N 54°02' E 010°60'1017.4
2014-Sep-18 16:33N 54°09' E 011°12'1716.8
2014-Sep-18 15:34N 54°24' E 011°24'1514.5
2014-Sep-18 14:34N 54°35' E 011°09'8513.7
2014-Sep-18 08:20N 55°59' E 010°50'31 1.9
2014-Sep-17 15:33N 56°30' E 011°04'6014.8
2014-Sep-17 11:32N 57°28' E 010°43'4110.3
2014-Sep-17 07:33N 57°32' E 009°27'1716.7
2014-Sep-17 06:34N 57°22' E 009°02'1716.8
2014-Sep-17 05:33N 57°13' E 008°36'3316.5
2014-Sep-17 03:33N 56°49' E 007°54'18316.6
2014-Sep-16 16:31N 54°13' E 005°04'1616.3
2014-Sep-16 15:33N 53°59' E 004°56'1717.0
2014-Sep-16 14:33N 53°42' E 004°52'6817.1
2014-Sep-16 10:33N 52°40' E 004°02'1817.7
2014-Sep-16 09:33N 52°24' E 003°53'1817.8
2014-Sep-16 08:33N 52°06' E 003°56'1515.0
2014-Sep-16 07:33N 51°55' E 004°14'7 7.5
2014-Sep-16 06:33N 51°53' E 004°25'0 0.0
2014-Sep-16 05:26N 51°53' E 004°25'0 0.0
2014-Sep-16 04:08N 51°53' E 004°25'0 0.0
2014-Sep-16 03:17N 51°53' E 004°25'0 0.0
2014-Sep-16 02:26N 51°53' E 004°25'0 0.0
2014-Sep-16 01:14N 51°53' E 004°25'0 0.0
2014-Sep-16 00:32N 51°53' E 004°25'0 0.0
2014-Sep-15 23:32N 51°53' E 004°25'0 0.0
2014-Sep-15 22:20N 51°53' E 004°25'0 0.0
2014-Sep-15 21:17N 51°53' E 004°25'0 0.0
2014-Sep-15 20:17N 51°53' E 004°25'0 0.0
2014-Sep-15 19:32N 51°53' E 004°25'0 0.0
2014-Sep-15 18:32N 51°53' E 004°25'6 5.8
2014-Sep-15 17:33N 51°54' E 004°16'1515.2
2014-Sep-15 16:34N 52°01' E 003°54'1615.5
2014-Sep-15 15:34N 52°16' E 003°46'7617.4
2014-Sep-15 11:11N 53°26' E 004°35'1015.4
2014-Sep-15 10:32N 53°31' E 004°49'1616.1
2014-Sep-15 09:33N 53°37' E 005°14'1616.4
2014-Sep-15 08:33N 53°43' E 005°40'2417.8
2014-Sep-15 07:14N 53°49' E 006°19'4918.2
2014-Sep-15 04:34N 54°01' E 007°38'1717.4
2014-Sep-15 03:34N 54°01' E 008°08'1616.3
2014-Sep-15 02:33N 53°58' E 008°35'1313.4
2014-Sep-15 01:33N 53°51' E 008°55'9 8.9
2014-Sep-15 00:34N 53°54' E 009°09'6 6.3
2014-Sep-14 23:34N 53°58' E 009°16'9 9.0
2014-Sep-14 22:33N 54°07' E 009°20'9 8.7
2014-Sep-14 21:33N 54°12' E 009°32'52 7.4
2014-Sep-14 14:31N 54°36' E 010°52'1717.9
2014-Sep-14 13:33N 54°33' E 011°21'1818.4
2014-Sep-14 12:33N 54°26' E 011°51'1515.2
2014-Sep-14 11:33N 54°33' E 012°14'1717.3
2014-Sep-14 10:33N 54°45' E 012°35'1917.6
2014-Sep-14 09:30N 54°52' E 013°05'1717.8
2014-Sep-14 08:33N 54°58' E 013°32'3517.2
2014-Sep-14 06:33N 55°17' E 014°22'7217.8
2014-Sep-14 02:29N 55°57' E 016°09'31717.7
2014-Sep-13 08:32N 59°37' E 023°18'1717.9
2014-Sep-13 07:33N 59°42' E 023°51'2018.1
2014-Sep-13 06:27N 59°47' E 024°30'5717.9
2014-Sep-13 03:17N 59°59' E 026°20'1317.8
2014-Sep-13 02:34N 60°01' E 026°46'  

Dump ship's entire track history